Time;durP1;ratioP1;P1;durP2;ratioP2;P2;SDS_P1;SDS_P2;PMS_P1;PMS_P2;Temp;Humidity;BMP_temperature;BMP_pressure;BME280_temperature;BME280_humidity;BME280_pressure;Samples;Min_cycle;Max_cycle;Signal;HPM_P1;HPM_P2
2021/07/22 00:02:11;;;;;;;;;;;;;;;23.04;29.02;97792.72;5066283;28;673;-83
2021/07/22 00:04:36;;;;;;;;;;;;;;;23.15;28.56;97790.28;5063169;28;1004;-83
2021/07/22 00:07:01;;;;;;;;;;;;;;;23.15;28.70;97787.47;5064061;28;892;-83
2021/07/22 00:09:27;;;;;;;;;;;;;;;23.29;28.53;97784.09;5064170;28;826;-83
2021/07/22 00:11:52;;;;;;;;;;;;;;;23.12;28.68;97782.72;5081284;28;1977;-83
2021/07/22 00:14:18;;;;;;;;;;;;;;;23.01;28.83;97773.81;5064436;28;673;-83
2021/07/22 00:16:45;;;;;;;;;;;;;;;23.00;28.86;97761.66;5064417;28;673;-83
2021/07/22 00:19:11;;;;;;;;;;;;;;;22.97;28.78;97756.09;5063725;28;865;-83
2021/07/22 00:21:36;;;;;;;;;;;;;;;23.03;28.62;97740.06;5064119;28;937;-83
2021/07/22 00:24:02;;;;;;;;;;;;;;;22.81;29.00;97737.97;5063403;28;871;-82
2021/07/22 00:26:27;;;;;;;;;;;;;;;22.86;28.71;97743.06;5064859;28;681;-83
2021/07/22 00:28:52;;;;;;;;;;;;;;;22.99;28.64;97740.19;5063382;28;852;-82
2021/07/22 00:31:18;;;;;;;;;;;;;;;22.94;28.83;97740.00;5063914;28;815;-82
2021/07/22 00:33:43;;;;;;;;;;;;;;;23.17;28.67;97742.41;5062588;28;1910;-83
2021/07/22 00:36:09;;;;;;;;;;;;;;;22.94;28.68;97746.47;5063671;28;927;-83
2021/07/22 00:38:36;;;;;;;;;;;;;;;22.97;28.71;97745.53;5062967;28;946;-83
2021/07/22 00:41:03;;;;;;;;;;;;;;;23.01;28.46;97759.63;5048127;28;1258;-82
2021/07/22 00:43:29;;;;;;;;;;;;;;;23.05;28.71;97746.06;5062859;28;1357;-83
2021/07/22 00:45:55;;;;;;;;;;;;;;;22.94;28.88;97745.66;5064678;28;673;-83
2021/07/22 00:48:20;;;;;;;;;;;;;;;22.87;28.83;97747.47;5045591;28;1187;-83
2021/07/22 00:50:46;;;;;;;;;;;;;;;22.88;28.91;97743.41;5063989;28;914;-83
2021/07/22 00:53:12;;;;;;;;;;;;;;;23.02;28.59;97741.31;5062711;28;1902;-83
2021/07/22 00:55:38;;;;;;;;;;;;;;;22.87;28.61;97746.69;5063987;28;1178;-83
2021/07/22 00:58:04;;;;;;;;;;;;;;;22.81;28.93;97734.34;5063294;28;1256;-82
2021/07/22 01:00:30;;;;;;;;;;;;;;;22.83;28.89;97735.47;5062858;28;842;-83
2021/07/22 01:02:56;;;;;;;;;;;;;;;22.95;28.97;97738.72;5063578;28;963;-83
2021/07/22 01:05:22;;;;;;;;;;;;;;;22.81;29.06;97746.50;5063833;28;859;-84
2021/07/22 01:07:47;;;;;;;;;;;;;;;22.88;29.05;97737.75;5047577;28;1163;-84
2021/07/22 01:10:13;;;;;;;;;;;;;;;22.74;28.99;97743.91;5063887;28;865;-84
2021/07/22 01:12:39;;;;;;;;;;;;;;;22.96;28.84;97740.34;5064588;28;1906;-84
2021/07/22 01:15:06;;;;;;;;;;;;;;;22.81;29.09;97737.97;5064756;28;1255;-84
2021/07/22 01:17:40;;;;;;;;;;;;;;;22.89;28.91;97732.84;5048450;28;1277;-84
2021/07/22 01:20:09;;;;;;;;;;;;;;;22.85;28.98;97727.31;5064387;28;1294;-85
2021/07/22 01:22:36;;;;;;;;;;;;;;;22.95;29.09;97730.22;5065066;28;845;-84
2021/07/22 01:25:02;;;;;;;;;;;;;;;22.74;29.09;97729.72;5064254;28;948;-84
2021/07/22 01:27:28;;;;;;;;;;;;;;;22.75;29.29;97730.53;5047471;28;1321;-86
2021/07/22 01:30:01;;;;;;;;;;;;;;;22.88;28.87;97734.91;5065299;28;1280;-84
2021/07/22 01:32:26;;;;;;;;;;;;;;;22.81;29.12;97735.16;5063696;28;1980;-84
2021/07/22 01:34:52;;;;;;;;;;;;;;;22.83;29.06;97721.28;5064255;28;880;-84
2021/07/22 01:37:21;;;;;;;;;;;;;;;22.83;29.15;97729.78;5065160;28;1276;-83
2021/07/22 01:39:47;;;;;;;;;;;;;;;22.84;28.92;97736.25;5064263;28;1147;-84
2021/07/22 01:42:12;;;;;;;;;;;;;;;22.75;29.56;97734.16;5047974;28;1432;-83
2021/07/22 01:44:39;;;;;;;;;;;;;;;22.87;29.26;97741.81;5063855;28;1151;-83
2021/07/22 01:47:06;;;;;;;;;;;;;;;22.95;28.98;97730.22;5046423;28;1295;-84
2021/07/22 01:49:31;;;;;;;;;;;;;;;23.07;28.67;97735.06;5064518;28;914;-84
2021/07/22 01:52:02;;;;;;;;;;;;;;;22.95;29.04;97724.53;5064516;28;1909;-83
2021/07/22 01:54:29;;;;;;;;;;;;;;;22.85;29.22;97727.31;5047311;28;602;-83
2021/07/22 01:56:58;;;;;;;;;;;;;;;22.86;29.44;97728.88;5065087;28;650;-83
2021/07/22 01:59:26;;;;;;;;;;;;;;;22.90;29.23;97730.81;5047152;28;1506;-83
2021/07/22 02:01:52;;;;;;;;;;;;;;;22.93;29.23;97722.19;5046074;28;1138;-83
2021/07/22 02:04:33;;;;;;;;;;;;;;;22.94;29.08;97718.09;5062781;28;936;-83
2021/07/22 02:06:59;;;;;;;;;;;;;;;22.73;29.36;97711.09;5063801;28;578;-83
2021/07/22 02:09:24;;;;;;;;;;;;;;;22.76;29.59;97717.91;5046152;28;1194;-82
2021/07/22 02:11:51;;;;;;;;;;;;;;;22.92;28.99;97722.66;5063546;28;1972;-83
2021/07/22 02:14:17;;;;;;;;;;;;;;;23.01;29.17;97717.84;5062358;28;835;-84
2021/07/22 02:16:43;;;;;;;;;;;;;;;22.89;29.29;97727.19;5046230;28;1215;-83
2021/07/22 02:19:09;;;;;;;;;;;;;;;22.73;29.54;97724.50;5030120;28;1242;-84
2021/07/22 02:21:39;;;;;;;;;;;;;;;22.80;29.50;97719.38;5048346;28;1389;-85
2021/07/22 02:24:04;;;;;;;;;;;;;;;22.78;29.46;97716.19;5064086;28;841;-84
2021/07/22 02:26:38;;;;;;;;;;;;;;;22.75;29.63;97717.13;5065505;28;1140;-84
2021/07/22 02:29:04;;;;;;;;;;;;;;;22.73;29.66;97713.94;5047549;28;1174;-85
2021/07/22 02:31:32;;;;;;;;;;;;;;;22.72;29.89;97711.56;5047394;28;1364;-83
2021/07/22 02:33:57;;;;;;;;;;;;;;;22.87;29.61;97713.44;5062852;28;1882;-85
2021/07/22 02:36:23;;;;;;;;;;;;;;;22.85;29.53;97720.84;5063462;28;1290;-82
2021/07/22 02:38:58;;;;;;;;;;;;;;;22.74;29.89;97720.41;5062727;28;1289;-84
2021/07/22 02:41:24;;;;;;;;;;;;;;;22.90;29.46;97722.31;5047607;28;1337;-84
2021/07/22 02:43:49;;;;;;;;;;;;;;;22.90;29.54;97716.63;5062852;28;693;-84
2021/07/22 02:46:17;;;;;;;;;;;;;;;22.83;29.76;97724.13;5064173;28;1336;-85
2021/07/22 02:48:56;;;;;;;;;;;;;;;22.83;29.75;97718.44;5048909;28;1376;-84
2021/07/22 02:51:23;;;;;;;;;;;;;;;22.74;30.20;97726.91;5046997;28;1196;-84
2021/07/22 02:53:48;;;;;;;;;;;;;;;22.72;30.01;97720.09;5063698;28;1890;-85
2021/07/22 02:56:22;;;;;;;;;;;;;;;22.80;29.66;97727.88;5063572;28;685;-84
2021/07/22 02:58:48;;;;;;;;;;;;;;;22.88;29.67;97731.28;5047888;28;1300;-84
2021/07/22 03:01:15;;;;;;;;;;;;;;;22.80;29.63;97733.56;5051055;28;1128;-84
2021/07/22 03:03:41;;;;;;;;;;;;;;;22.75;29.83;97733.38;5066885;28;889;-85
2021/07/22 03:06:15;;;;;;;;;;;;;;;22.79;29.44;97740.47;5051708;28;1104;-85
2021/07/22 03:08:43;;;;;;;;;;;;;;;23.02;29.25;97736.44;5051287;28;1187;-84
2021/07/22 03:11:10;;;;;;;;;;;;;;;22.99;28.99;97747.91;5067497;28;983;-85
2021/07/22 03:13:36;;;;;;;;;;;;;;;22.95;29.16;97747.25;5067030;28;1987;-84
2021/07/22 03:16:04;;;;;;;;;;;;;;;22.88;29.20;97749.09;5051653;28;1307;-86
2021/07/22 03:18:56;;;;;;;;;;;;;;;22.75;29.49;97744.72;5036601;28;1141;-84
2021/07/22 03:21:22;;;;;;;;;;;;;;;22.85;29.25;97746.38;5050843;28;1261;-85
2021/07/22 03:24:08;;;;;;;;;;;;;;;22.90;29.07;97750.66;5067356;28;1069;-84
2021/07/22 03:26:38;;;;;;;;;;;;;;;22.72;29.10;97746.41;5067307;28;958;-84
2021/07/22 03:29:06;;;;;;;;;;;;;;;22.87;29.21;97747.47;5066844;28;594;-84
2021/07/22 03:31:34;;;;;;;;;;;;;;;22.87;29.03;97764.50;5050509;28;1158;-85
2021/07/22 03:34:11;;;;;;;;;;;;;;;22.94;28.95;97762.69;5067995;28;938;-84
2021/07/22 03:36:54;;;;;;;;;;;;;;;22.84;29.20;97765.41;5053720;28;662;-84
2021/07/22 03:39:19;;;;;;;;;;;;;;;22.91;28.94;97769.31;5067454;28;677;-84
2021/07/22 03:41:48;;;;;;;;;;;;;;;22.98;28.84;97777.56;5066980;28;982;-84
2021/07/22 03:44:26;;;;;;;;;;;;;;;22.92;29.00;97782.22;5052578;28;1271;-84
2021/07/22 03:46:52;;;;;;;;;;;;;;;23.04;28.92;97778.53;5067836;28;1246;-85
2021/07/22 03:49:22;;;;;;;;;;;;;;;22.92;28.66;97782.22;5050972;28;1154;-85
2021/07/22 03:51:57;;;;;;;;;;;;;;;22.88;28.88;97785.97;5067464;28;1906;-84
2021/07/22 03:54:30;;;;;;;;;;;;;;;22.99;30.25;97787.63;5051045;23;1713;-85
2021/07/22 03:56:56;;;;;;;;;;;;;;;23.37;31.30;97791.13;5070526;28;1131;-85
2021/07/22 03:59:24;;;;;;;;;;;;;;;23.11;31.17;97783.97;5070274;28;861;-85
2021/07/22 04:01:54;;;;;;;;;;;;;;;22.91;31.09;97787.13;5070771;28;1190;-85
2021/07/22 04:04:27;;;;;;;;;;;;;;;23.00;30.59;97784.38;5055443;28;1418;-86
2021/07/22 04:09:42;;;;;;;;;;;;;;;23.13;32.93;97782.25;4994810;26;2848;-86
2021/07/22 04:12:26;;;;;;;;;;;;;;;23.38;32.56;97784.19;5095238;28;1905;-85
2021/07/22 04:17:55;;;;;;;;;;;;;;;23.67;34.00;97791.63;3349791;26;2713;-84
2021/07/22 04:20:51;;;;;;;;;;;;;;;23.46;32.91;97803.78;5094898;28;997;-85
2021/07/22 04:23:19;;;;;;;;;;;;;;;23.22;32.46;97801.41;5106968;28;954;-85
2021/07/22 04:26:03;;;;;;;;;;;;;;;22.49;31.21;97698.63;5107622;28;583;-85
2021/07/22 04:28:46;;;;;;;;;;;;;;;23.04;30.85;97796.34;5092635;28;1543;-85
2021/07/22 04:31:15;;;;;;;;;;;;;;;22.84;30.69;97799.44;5107487;28;654;-85
2021/07/22 04:34:07;;;;;;;;;;;;;;;22.94;30.05;97791.06;5091419;28;1945;-85
2021/07/22 04:36:46;;;;;;;;;;;;;;;23.02;29.58;97798.09;5092931;28;821;-87
2021/07/22 04:39:29;;;;;;;;;;;;;;;22.94;29.28;97796.75;5094884;28;483;-86
2021/07/22 04:42:01;;;;;;;;;;;;;;;22.88;29.00;97799.38;5109028;28;534;-86
2021/07/22 04:44:45;;;;;;;;;;;;;;;22.74;28.63;97811.16;5108452;28;669;-86
2021/07/22 04:47:49;;;;;;;;;;;;;;;22.72;28.76;97814.47;4997156;28;976;-86
2021/07/22 04:50:38;;;;;;;;;;;;;;;22.87;28.35;97809.91;5008504;28;968;-86
2021/07/22 04:53:24;;;;;;;;;;;;;;;22.91;28.13;97814.69;5079964;28;1878;-87
2021/07/22 04:55:54;;;;;;;;;;;;;;;22.74;28.17;97812.00;5107295;28;708;-86
2021/07/22 04:58:20;;;;;;;;;;;;;;;22.76;28.03;97806.63;5075372;28;1143;-87
2021/07/22 05:00:46;;;;;;;;;;;;;;;22.64;28.13;97807.47;5092044;28;840;-86
2021/07/22 05:03:11;;;;;;;;;;;;;;;22.81;27.90;97823.09;5091555;28;1147;-87
2021/07/22 05:05:38;;;;;;;;;;;;;;;22.79;27.50;97814.22;5091077;28;1243;-86
2021/07/22 05:08:19;;;;;;;;;;;;;;;22.88;27.39;97816.38;5108640;28;1290;-87
2021/07/22 05:11:10;;;;;;;;;;;;;;;22.60;27.76;97818.94;5105258;28;974;-87
2021/07/22 05:13:58;;;;;;;;;;;;;;;22.66;27.98;97816.31;5076474;28;1975;-86
2021/07/22 05:16:44;;;;;;;;;;;;;;;22.72;27.59;97803.13;5094457;28;1237;-86
2021/07/22 05:19:16;;;;;;;;;;;;;;;22.71;27.67;97810.06;5092706;28;1306;-87
2021/07/22 05:22:10;;;;;;;;;;;;;;;22.79;27.40;97819.09;5045566;28;1127;-86
2021/07/22 05:24:42;;;;;;;;;;;;;;;22.80;27.47;97815.03;5076132;28;1036;-86
2021/07/22 05:27:33;;;;;;;;;;;;;;;22.82;27.48;97819.00;5080170;28;1208;-86
2021/07/22 05:30:20;;;;;;;;;;;;;;;22.56;27.72;97811.78;5108332;28;512;-87
2021/07/22 05:33:05;;;;;;;;;;;;;;;22.64;27.49;97815.97;5093416;28;1915;-87
2021/07/22 05:36:06;;;;;;;;;;;;;;;22.54;27.96;97803.75;5046714;28;1172;-86
2021/07/22 05:38:44;;;;;;;;;;;;;;;22.66;27.93;97810.63;5100403;28;1253;-87
2021/07/22 05:41:10;;;;;;;;;;;;;;;22.63;27.72;97817.22;5090409;28;941;-86
2021/07/22 05:43:35;;;;;;;;;;;;;;;22.58;27.85;97814.94;5090303;28;1307;-86
2021/07/22 05:46:01;;;;;;;;;;;;;;;22.47;27.91;97814.50;5108016;28;665;-86
2021/07/22 05:48:26;;;;;;;;;;;;;;;22.74;27.66;97817.66;5107690;28;789;-86
2021/07/22 05:50:52;;;;;;;;;;;;;;;22.68;27.95;97819.47;5108566;28;657;-85
2021/07/22 05:53:18;;;;;;;;;;;;;;;22.51;27.87;97818.03;5072543;28;1926;-86
2021/07/22 05:55:53;;;;;;;;;;;;;;;22.54;28.04;97814.28;5089151;28;1287;-86
2021/07/22 05:58:19;;;;;;;;;;;;;;;22.56;28.02;97817.47;5107665;28;1016;-86
2021/07/22 06:00:44;;;;;;;;;;;;;;;22.62;28.00;97821.31;5073320;28;1157;-87
2021/07/22 06:03:10;;;;;;;;;;;;;;;22.65;27.83;97820.41;5090226;28;1135;-86
2021/07/22 06:05:36;;;;;;;;;;;;;;;22.60;28.40;97818.13;5089388;28;893;-85
2021/07/22 06:08:01;;;;;;;;;;;;;;;22.64;28.25;97824.50;5107375;28;1320;-87
2021/07/22 06:10:27;;;;;;;;;;;;;;;22.53;28.49;97824.81;5107049;28;997;-87
2021/07/22 06:12:54;;;;;;;;;;;;;;;22.53;28.81;97821.19;5088588;28;1965;-84
2021/07/22 06:15:20;;;;;;;;;;;;;;;22.52;28.58;97822.44;5088508;28;1258;-87
2021/07/22 06:17:46;;;;;;;;;;;;;;;22.63;28.77;97820.03;5106464;28;992;-86
2021/07/22 06:20:12;;;;;;;;;;;;;;;22.63;28.94;97822.88;5073165;28;1264;-84
2021/07/22 06:22:38;;;;;;;;;;;;;;;22.56;29.15;97817.47;5103345;28;1284;-83
2021/07/22 06:25:05;;;;;;;;;;;;;;;22.56;29.17;97815.41;5088074;28;858;-87
2021/07/22 06:27:30;;;;;;;;;;;;;;;22.69;28.73;97815.41;5089017;28;928;-86
2021/07/22 06:29:58;;;;;;;;;;;;;;;22.70;29.06;97825.50;5106997;28;1020;-86
2021/07/22 06:32:24;;;;;;;;;;;;;;;22.68;28.84;97813.00;5089180;28;1913;-86
2021/07/22 06:34:49;;;;;;;;;;;;;;;22.62;29.26;97822.09;5089690;28;1138;-86
2021/07/22 06:37:15;;;;;;;;;;;;;;;22.54;29.38;97828.47;5088857;28;1285;-86
2021/07/22 06:39:52;;;;;;;;;;;;;;;22.52;29.20;97822.44;5091043;28;1321;-86
2021/07/22 06:42:18;;;;;;;;;;;;;;;22.64;29.28;97827.31;5106018;28;976;-87
2021/07/22 06:44:47;;;;;;;;;;;;;;;22.58;29.36;97837.63;5106651;28;1015;-85
2021/07/22 06:47:12;;;;;;;;;;;;;;;22.54;29.19;97836.97;5088823;28;1456;-87
2021/07/22 06:49:38;;;;;;;;;;;;;;;22.67;29.04;97829.22;5089196;28;765;-86
2021/07/22 06:52:03;;;;;;;;;;;;;;;22.60;29.30;97823.81;5089002;28;1910;-86
2021/07/22 06:54:29;;;;;;;;;;;;;;;22.71;29.31;97824.25;5089098;28;1296;-86
2021/07/22 06:56:55;;;;;;;;;;;;;;;22.68;29.19;97833.66;5090076;28;1247;-87
2021/07/22 06:59:20;;;;;;;;;;;;;;;22.63;29.29;97828.56;5106394;28;951;-87
2021/07/22 07:01:46;;;;;;;;;;;;;;;22.60;29.34;97826.66;5089239;28;1161;-86
2021/07/22 07:04:11;;;;;;;;;;;;;;;22.69;29.38;97825.94;5106130;28;841;-86
2021/07/22 07:06:39;;;;;;;;;;;;;;;22.83;29.26;97831.13;5088981;28;1027;-87
2021/07/22 07:09:05;;;;;;;;;;;;;;;22.67;29.41;97834.91;5089454;28;1476;-85
2021/07/22 07:11:31;;;;;;;;;;;;;;;22.62;29.34;97829.81;5088734;28;1166;-86
2021/07/22 07:13:57;;;;;;;;;;;;;;;22.70;29.37;97834.00;5071788;28;1886;-87
2021/07/22 07:16:23;;;;;;;;;;;;;;;22.67;29.33;97837.75;5105461;28;852;-87
2021/07/22 07:18:49;;;;;;;;;;;;;;;22.67;29.25;97846.25;5088734;28;1175;-86
2021/07/22 07:21:15;;;;;;;;;;;;;;;22.68;29.44;97842.16;5105682;28;1221;-86
2021/07/22 07:23:40;;;;;;;;;;;;;;;22.59;29.72;97839.25;5105912;28;887;-86
2021/07/22 07:26:09;;;;;;;;;;;;;;;22.63;29.75;97845.56;5106256;28;1296;-86
2021/07/22 07:28:34;;;;;;;;;;;;;;;22.50;29.78;97842.75;5087859;28;1321;-86
2021/07/22 07:31:00;;;;;;;;;;;;;;;22.64;29.47;97847.19;5106155;28;956;-85
2021/07/22 07:33:28;;;;;;;;;;;;;;;22.61;29.74;97856.59;5089436;28;1980;-86
2021/07/22 07:35:53;;;;;;;;;;;;;;;22.62;29.57;97858.16;5106162;28;790;-87
2021/07/22 07:38:19;;;;;;;;;;;;;;;22.64;29.59;97855.69;5105961;28;637;-86
2021/07/22 07:40:45;;;;;;;;;;;;;;;22.64;29.73;97852.84;5105672;28;1069;-86
2021/07/22 07:43:14;;;;;;;;;;;;;;;22.58;29.42;97871.66;5105719;28;951;-86
2021/07/22 07:45:39;;;;;;;;;;;;;;;22.61;29.63;97870.75;5073253;28;1300;-86
2021/07/22 07:48:05;;;;;;;;;;;;;;;22.61;29.76;97859.41;5110021;28;904;-85
2021/07/22 07:50:30;;;;;;;;;;;;;;;22.59;29.67;97873.28;5092372;28;1258;-86
2021/07/22 07:52:56;;;;;;;;;;;;;;;22.54;29.56;97865.34;5092831;28;1901;-86
2021/07/22 07:55:23;;;;;;;;;;;;;;;22.51;29.92;97871.91;5109347;28;936;-87
2021/07/22 07:57:48;;;;;;;;;;;;;;;22.65;29.67;97862.94;5109059;28;958;-85
2021/07/22 08:00:14;;;;;;;;;;;;;;;22.72;29.70;97871.19;5090676;28;1251;-86
2021/07/22 08:02:40;;;;;;;;;;;;;;;22.64;29.79;97872.69;5090695;28;1502;-86
2021/07/22 08:05:06;;;;;;;;;;;;;;;22.81;29.52;97871.31;5108390;28;1220;-87
2021/07/22 08:07:31;;;;;;;;;;;;;;;22.75;29.42;97869.50;5091648;28;1281;-86
2021/07/22 08:09:57;;;;;;;;;;;;;;;22.69;29.78;97877.81;5091574;28;870;-87
2021/07/22 08:12:22;;;;;;;;;;;;;;;22.72;29.72;97876.88;5109641;28;1887;-86
2021/07/22 08:14:48;;;;;;;;;;;;;;;22.56;30.18;97877.00;5107838;28;1146;-86
2021/07/22 08:17:14;;;;;;;;;;;;;;;22.52;30.14;97884.81;5091246;28;1347;-86
2021/07/22 08:19:39;;;;;;;;;;;;;;;22.56;29.70;97874.16;5091213;28;1318;-86
2021/07/22 08:22:05;;;;;;;;;;;;;;;22.61;29.62;97877.22;5084987;28;1279;-86
2021/07/22 08:24:30;;;;;;;;;;;;;;;22.77;29.38;97881.97;5097326;28;1336;-86
2021/07/22 08:26:56;;;;;;;;;;;;;;;22.71;29.81;97878.13;5107777;28;1253;-84
2021/07/22 08:29:21;;;;;;;;;;;;;;;22.57;29.75;97881.44;5108130;28;1380;-86
2021/07/22 08:31:47;;;;;;;;;;;;;;;22.51;29.99;97880.41;5073583;28;1305;-86
2021/07/22 08:34:15;;;;;;;;;;;;;;;22.53;29.98;97897.75;5090657;28;1890;-87
2021/07/22 08:36:41;;;;;;;;;;;;;;;22.60;30.08;97891.88;5092593;28;1140;-86
2021/07/22 08:39:06;;;;;;;;;;;;;;;22.59;29.68;97882.56;5091753;28;933;-86
2021/07/22 08:41:32;;;;;;;;;;;;;;;22.57;30.08;97887.88;5108927;28;1038;-86
2021/07/22 08:43:57;;;;;;;;;;;;;;;22.62;30.08;97895.03;5091122;28;1250;-85
2021/07/22 08:46:23;;;;;;;;;;;;;;;22.53;30.10;97892.09;5091933;28;824;-86
2021/07/22 08:48:48;;;;;;;;;;;;;;;22.61;30.04;97893.44;5091465;28;1183;-86
2021/07/22 08:51:13;;;;;;;;;;;;;;;22.51;29.86;97888.91;5091041;28;1159;-86
2021/07/22 08:53:40;;;;;;;;;;;;;;;22.64;29.87;97884.03;5107948;28;1894;-87
2021/07/22 08:56:06;;;;;;;;;;;;;;;22.68;29.87;97879.03;5108404;28;877;-85
2021/07/22 08:58:31;;;;;;;;;;;;;;;22.59;29.72;97895.97;5091010;28;910;-87
2021/07/22 09:00:57;;;;;;;;;;;;;;;22.66;29.68;97895.72;5090731;28;1248;-87
2021/07/22 09:03:22;;;;;;;;;;;;;;;22.58;29.78;97897.19;5090613;28;881;-86
2021/07/22 09:05:48;;;;;;;;;;;;;;;22.56;29.82;97888.34;5108090;28;868;-86
2021/07/22 09:08:13;;;;;;;;;;;;;;;22.64;29.52;97889.72;5102411;28;1147;-85
2021/07/22 09:10:39;;;;;;;;;;;;;;;22.70;29.70;97885.06;5090997;28;852;-87
2021/07/22 09:13:04;;;;;;;;;;;;;;;22.78;29.71;97882.75;5091501;28;1909;-86
2021/07/22 09:15:36;;;;;;;;;;;;;;;22.73;29.72;97892.63;5108175;28;755;-86
2021/07/22 09:18:21;;;;;;;;;;;;;;;22.63;29.63;97894.56;5091358;28;1127;-86
2021/07/22 09:20:46;;;;;;;;;;;;;;;22.69;29.54;97894.81;5107317;28;950;-87
2021/07/22 09:23:17;;;;;;;;;;;;;;;22.71;29.64;97892.31;5091098;28;912;-87
2021/07/22 09:25:45;;;;;;;;;;;;;;;22.77;29.56;97879.13;5107852;28;915;-86
2021/07/22 09:28:14;;;;;;;;;;;;;;;22.54;30.01;97890.84;5090711;28;850;-86
2021/07/22 09:30:53;;;;;;;;;;;;;;;22.62;29.99;97884.47;5090712;28;1495;-86
2021/07/22 09:33:31;;;;;;;;;;;;;;;22.71;29.68;97880.19;5107328;28;1959;-87
2021/07/22 09:35:56;;;;;;;;;;;;;;;22.63;29.67;97893.78;5106106;28;931;-86
2021/07/22 09:38:22;;;;;;;;;;;;;;;22.65;29.67;97882.78;5087929;28;1158;-85
2021/07/22 09:40:47;;;;;;;;;;;;;;;22.72;29.46;97893.88;5078903;28;1198;-86
2021/07/22 09:43:13;;;;;;;;;;;;;;;22.59;29.65;97884.63;5080755;28;1194;-86
2021/07/22 09:45:38;;;;;;;;;;;;;;;22.72;29.76;97874.03;5089642;28;1374;-86
2021/07/22 09:48:08;;;;;;;;;;;;;;;22.66;29.76;97890.03;5053204;28;1367;-86
2021/07/22 09:50:40;;;;;;;;;;;;;;;22.63;29.64;97873.94;5070497;28;1292;-86
2021/07/22 09:53:13;;;;;;;;;;;;;;;22.70;29.84;97873.72;5069939;28;1946;-86
2021/07/22 09:55:39;;;;;;;;;;;;;;;22.62;29.63;97878.03;5087260;28;653;-86
2021/07/22 09:58:05;;;;;;;;;;;;;;;22.66;29.86;97878.69;5069966;28;830;-86
2021/07/22 10:00:31;;;;;;;;;;;;;;;22.66;29.88;97884.38;5070089;28;805;-86
2021/07/22 10:02:58;;;;;;;;;;;;;;;22.55;29.75;97893.22;5070435;28;1435;-85
2021/07/22 10:05:27;;;;;;;;;;;;;;;22.70;29.97;97870.88;5085533;28;874;-88
2021/07/22 10:07:53;;;;;;;;;;;;;;;22.76;29.79;97877.56;5083549;28;994;-86
2021/07/22 10:10:22;;;;;;;;;;;;;;;22.66;30.06;97878.69;5050234;28;1172;-88
2021/07/22 10:12:51;;;;;;;;;;;;;;;22.61;30.14;97882.09;5077219;28;1874;-87
2021/07/22 10:15:17;;;;;;;;;;;;;;;22.72;29.86;97882.53;5103510;28;811;-86
2021/07/22 10:17:42;;;;;;;;;;;;;;;22.72;29.92;97888.22;5070030;28;1215;-86
2021/07/22 10:20:09;;;;;;;;;;;;;;;22.68;30.06;97884.69;5104190;28;637;-86
2021/07/22 10:22:35;;;;;;;;;;;;;;;22.74;29.58;97890.59;5088995;28;713;-86
2021/07/22 10:25:00;;;;;;;;;;;;;;;22.72;29.90;97888.22;5070274;28;1182;-87
2021/07/22 10:27:26;;;;;;;;;;;;;;;22.77;29.65;97881.97;5072012;28;1298;-86
2021/07/22 10:29:52;;;;;;;;;;;;;;;22.63;29.82;97885.28;5087243;28;1239;-87
2021/07/22 10:32:26;;;;;;;;;;;;;;;22.66;29.83;97873.03;5072442;28;1976;-86
2021/07/22 10:34:52;;;;;;;;;;;;;;;22.69;30.02;97894.81;5088807;28;1377;-86
2021/07/22 10:37:18;;;;;;;;;;;;;;;22.82;29.47;97881.41;5069540;28;1436;-85
2021/07/22 10:40:05;;;;;;;;;;;;;;;22.73;29.62;97895.47;5102249;28;1221;-86
2021/07/22 10:42:40;;;;;;;;;;;;;;;22.80;29.60;97883.91;5104481;28;935;-86
2021/07/22 10:45:18;;;;;;;;;;;;;;;22.68;29.93;97881.06;5087113;28;1340;-86
2021/07/22 10:47:59;;;;;;;;;;;;;;;22.76;29.61;97888.91;5088499;28;1178;-86
2021/07/22 10:50:39;;;;;;;;;;;;;;;22.77;29.83;97873.47;5105510;28;585;-86
2021/07/22 10:53:05;;;;;;;;;;;;;;;22.86;29.55;97887.75;5104387;28;1979;-86
2021/07/22 10:55:40;;;;;;;;;;;;;;;22.79;29.76;97887.19;5088275;28;1176;-86
2021/07/22 10:58:21;;;;;;;;;;;;;;;22.72;29.56;97899.56;5104292;28;1163;-85
2021/07/22 11:00:46;;;;;;;;;;;;;;;22.62;29.94;97906.38;5104983;28;865;-85
2021/07/22 11:03:15;;;;;;;;;;;;;;;22.56;29.93;97902.53;5087368;28;891;-87
2021/07/22 11:05:41;;;;;;;;;;;;;;;22.58;29.63;97902.84;5087610;28;1165;-86
2021/07/22 11:08:22;;;;;;;;;;;;;;;22.68;29.55;97903.75;5105533;28;677;-87
2021/07/22 11:10:54;;;;;;;;;;;;;;;22.63;29.56;97907.97;5070560;28;1289;-85
2021/07/22 11:13:38;;;;;;;;;;;;;;;22.57;29.78;97898.44;5070306;28;1971;-87
2021/07/22 11:16:23;;;;;;;;;;;;;;;22.61;29.86;97911.25;5088095;28;1279;-86
2021/07/22 11:18:58;;;;;;;;;;;;;;;22.55;29.90;97901.72;5070296;28;1348;-87
2021/07/22 11:21:25;;;;;;;;;;;;;;;22.74;29.51;97904.78;5109187;28;702;-86
2021/07/22 11:24:18;;;;;;;;;;;;;;;22.77;29.45;97890.47;5108194;28;864;-86
2021/07/22 11:26:44;;;;;;;;;;;;;;;22.60;29.85;97906.06;5091676;28;1249;-86
2021/07/22 11:29:10;;;;;;;;;;;;;;;22.53;29.83;97904.22;5074110;28;1205;-86
2021/07/22 11:32:02;;;;;;;;;;;;;;;22.57;29.71;97904.91;5074013;28;1135;-86
2021/07/22 11:34:28;;;;;;;;;;;;;;;22.72;29.24;97902.41;5074524;28;1165;-86
2021/07/22 11:36:54;;;;;;;;;;;;;;;22.90;29.26;97895.38;5108483;28;650;-86
2021/07/22 11:39:49;;;;;;;;;;;;;;;22.85;29.34;97897.53;5091294;28;1178;-86
2021/07/22 11:42:14;;;;;;;;;;;;;;;22.76;29.44;97900.25;5095037;28;1546;-85
2021/07/22 11:44:40;;;;;;;;;;;;;;;22.58;29.50;97894.34;5090345;28;1246;-86
2021/07/22 11:47:15;;;;;;;;;;;;;;;22.64;29.48;97892.56;5090868;28;1223;-86
2021/07/22 11:49:41;;;;;;;;;;;;;;;22.61;29.62;97887.78;5089982;28;1159;-84
2021/07/22 11:52:06;;;;;;;;;;;;;;;22.56;29.84;97886.31;5089828;28;1972;-86
2021/07/22 11:54:31;;;;;;;;;;;;;;;22.79;29.25;97882.28;5090651;28;1280;-86
2021/07/22 11:56:57;;;;;;;;;;;;;;;22.73;29.11;97895.47;5074459;28;1197;-86
2021/07/22 11:59:32;;;;;;;;;;;;;;;22.72;29.57;97882.53;5090039;28;996;-86
2021/07/22 12:01:58;;;;;;;;;;;;;;;22.75;29.10;97875.97;5090635;28;1380;-86
2021/07/22 12:04:27;;;;;;;;;;;;;;;22.66;29.67;97878.69;5073610;28;1375;-86
2021/07/22 12:06:53;;;;;;;;;;;;;;;22.78;29.40;97866.53;5108139;28;713;-86
2021/07/22 12:09:19;;;;;;;;;;;;;;;22.78;29.15;97868.56;5090653;28;765;-87
2021/07/22 12:11:51;;;;;;;;;;;;;;;22.78;29.41;97869.38;5074070;28;1159;-86
2021/07/22 12:14:27;;;;;;;;;;;;;;;22.69;29.54;97877.81;5090369;28;1992;-86
2021/07/22 12:16:53;;;;;;;;;;;;;;;22.65;29.79;97888.47;5107650;28;1345;-86
2021/07/22 12:19:25;;;;;;;;;;;;;;;22.69;29.68;97880.63;5090440;28;1175;-86
2021/07/22 12:22:09;;;;;;;;;;;;;;;22.71;29.46;97868.81;5090042;28;1410;-86
2021/07/22 12:24:38;;;;;;;;;;;;;;;22.66;29.56;97878.69;5107272;28;1184;-85
2021/07/22 12:27:22;;;;;;;;;;;;;;;22.61;29.58;97865.09;5107831;28;1301;-87
2021/07/22 12:29:47;;;;;;;;;;;;;;;22.66;29.55;97864.53;5090357;28;1157;-86
2021/07/22 12:32:13;;;;;;;;;;;;;;;22.68;29.35;97859.19;5089504;28;1975;-86
2021/07/22 12:34:38;;;;;;;;;;;;;;;22.73;29.27;97860.66;5089991;28;1187;-86
2021/07/22 12:37:04;;;;;;;;;;;;;;;22.77;29.27;97858.50;5073382;28;1189;-86
2021/07/22 12:39:32;;;;;;;;;;;;;;;22.75;29.29;97858.16;5090116;28;1265;-85
2021/07/22 12:42:07;;;;;;;;;;;;;;;22.66;29.22;97856.00;5074069;28;1215;-86
2021/07/22 12:44:33;;;;;;;;;;;;;;;22.61;29.62;97853.75;5089833;28;1252;-86
2021/07/22 12:46:59;;;;;;;;;;;;;;;22.52;29.83;97856.47;5090618;28;1201;-86
2021/07/22 12:49:40;;;;;;;;;;;;;;;22.56;29.79;97846.59;5107528;28;871;-87
2021/07/22 12:52:06;;;;;;;;;;;;;;;22.63;29.70;97854.06;5106296;28;1894;-86
2021/07/22 12:54:31;;;;;;;;;;;;;;;22.66;29.38;97856.00;5072170;28;1180;-86
2021/07/22 12:56:57;;;;;;;;;;;;;;;22.69;29.68;97862.78;5106954;28;587;-86
2021/07/22 12:59:29;;;;;;;;;;;;;;;22.73;29.65;97855.75;5089272;28;951;-86
2021/07/22 13:01:55;;;;;;;;;;;;;;;22.72;29.67;97859.06;5089758;28;1148;-86
2021/07/22 13:04:21;;;;;;;;;;;;;;;22.76;29.56;97854.06;5071897;28;1165;-87
2021/07/22 13:06:47;;;;;;;;;;;;;;;22.68;29.64;97869.72;5107089;28;916;-87
2021/07/22 13:09:13;;;;;;;;;;;;;;;22.76;29.50;97860.53;5090481;28;1286;-86
2021/07/22 13:11:38;;;;;;;;;;;;;;;22.67;29.82;97868.16;5106756;28;665;-86
2021/07/22 13:14:04;;;;;;;;;;;;;;;22.71;29.67;97861.09;5106130;28;1906;-86
2021/07/22 13:16:29;;;;;;;;;;;;;;;22.73;29.42;97867.09;5089168;28;1162;-86
2021/07/22 13:18:55;;;;;;;;;;;;;;;22.76;29.54;97857.69;5089650;28;1171;-86